createdAt,value
2023-03-21T00:02:17.873Z,27.85
2023-03-21T00:04:52.282Z,29.80
2023-03-21T00:07:18.244Z,27.80
2023-03-21T00:09:47.648Z,28.70
2023-03-21T00:12:17.185Z,31.10
2023-03-21T00:14:47.273Z,30.03
2023-03-21T00:17:17.116Z,31.33
2023-03-21T00:19:46.529Z,30.05
2023-03-21T00:22:16.091Z,29.67
2023-03-21T00:24:45.469Z,30.10
2023-03-21T00:27:44.863Z,33.15
2023-03-21T00:29:45.942Z,30.27
2023-03-21T00:32:15.665Z,31.47
2023-03-21T00:35:01.514Z,32.45
2023-03-21T00:37:18.754Z,31.37
2023-03-21T00:42:19.303Z,30.55
2023-03-21T00:44:48.808Z,32.25
2023-03-21T00:47:18.290Z,29.27
2023-03-21T00:49:47.692Z,30.70
2023-03-21T00:52:27.338Z,30.23
2023-03-21T00:54:48.122Z,30.08
2023-03-21T00:57:20.196Z,29.60
2023-03-21T00:59:49.634Z,30.70
2023-03-21T01:02:20.810Z,29.93
2023-03-21T01:04:50.872Z,30.55
2023-03-21T01:07:20.487Z,30.48
2023-03-21T01:09:51.173Z,32.23
2023-03-21T01:12:20.902Z,31.50
2023-03-21T01:14:50.249Z,32.83
2023-03-21T01:17:19.694Z,32.50
2023-03-21T01:19:52.235Z,30.17
2023-03-21T01:22:21.093Z,31.42
2023-03-21T01:27:21.234Z,30.65
2023-03-21T01:29:51.039Z,30.15
2023-03-21T01:32:20.692Z,32.42
2023-03-21T01:34:50.313Z,31.80
2023-03-21T01:37:20.103Z,31.20
2023-03-21T01:39:51.321Z,29.37
2023-03-21T01:42:20.903Z,27.02
2023-03-21T01:45:03.442Z,28.00
2023-03-21T01:47:37.253Z,28.23
2023-03-21T01:50:25.495Z,29.63
2023-03-21T01:52:59.396Z,28.32
2023-03-21T01:55:33.606Z,29.60
2023-03-21T01:58:07.588Z,27.58
2023-03-21T02:00:41.686Z,27.95
2023-03-21T02:03:26.136Z,25.75
2023-03-21T02:06:03.684Z,26.15
2023-03-21T02:08:39.615Z,26.12
2023-03-21T02:11:11.464Z,25.25
2023-03-21T02:13:42.643Z,26.87
2023-03-21T02:16:22.363Z,24.30
2023-03-21T02:19:00.936Z,24.05
2023-03-21T02:21:58.735Z,24.82
2023-03-21T02:25:01.361Z,24.75
2023-03-21T02:27:31.489Z,23.87
2023-03-21T02:30:20.191Z,26.07
2023-03-21T02:33:08.214Z,23.98
2023-03-21T02:35:56.809Z,20.97
2023-03-21T02:38:37.832Z,24.20
2023-03-21T02:41:19.619Z,22.95
2023-03-21T02:43:56.713Z,23.40
2023-03-21T02:46:42.887Z,22.37
2023-03-21T02:51:42.728Z,21.40
2023-03-21T02:54:34.920Z,20.60
2023-03-21T02:56:50.133Z,21.42
2023-03-21T02:59:22.656Z,20.30
2023-03-21T03:01:54.210Z,20.12
2023-03-21T03:04:27.604Z,19.82
2023-03-21T03:07:16.227Z,19.77
2023-03-21T03:10:19.382Z,19.90
2023-03-21T03:13:09.837Z,19.37
2023-03-21T03:16:15.387Z,19.12
2023-03-21T03:19:00.072Z,18.32
2023-03-21T03:21:32.652Z,18.80
2023-03-21T03:24:11.072Z,20.30
2023-03-21T03:26:49.409Z,18.95
2023-03-21T03:29:23.449Z,18.80
2023-03-21T03:31:58.933Z,20.48
2023-03-21T03:34:37.433Z,19.95
2023-03-21T03:37:09.895Z,19.75
2023-03-21T03:39:42.489Z,20.95
2023-03-21T03:42:28.415Z,21.48
2023-03-21T03:44:57.785Z,19.95
2023-03-21T03:47:36.332Z,19.27
2023-03-21T03:50:09.803Z,19.98
2023-03-21T03:52:55.612Z,19.90
2023-03-21T03:55:19.258Z,20.50
2023-03-21T03:57:50.420Z,20.15
2023-03-21T04:00:20.879Z,20.52
2023-03-21T04:02:51.221Z,23.40
2023-03-21T04:05:22.328Z,21.87
2023-03-21T04:07:51.826Z,22.20
2023-03-21T04:10:23.106Z,22.67
2023-03-21T04:12:52.647Z,23.67
2023-03-21T04:15:29.505Z,21.02
2023-03-21T04:18:00.829Z,23.10
2023-03-21T04:20:43.206Z,21.68
2023-03-21T04:23:01.897Z,22.73
2023-03-21T04:25:34.175Z,21.52
2023-03-21T04:28:03.203Z,23.25
2023-03-21T04:30:58.558Z,21.93
2023-03-21T04:33:16.329Z,23.27
2023-03-21T04:35:47.498Z,23.02
2023-03-21T04:38:17.081Z,22.30
2023-03-21T04:40:46.602Z,23.70
2023-03-21T04:43:16.605Z,25.35
2023-03-21T04:45:46.088Z,25.85
2023-03-21T04:48:17.269Z,25.60
2023-03-21T04:50:47.723Z,23.52
2023-03-21T04:55:45.993Z,23.05
2023-03-21T04:58:15.468Z,25.90
2023-03-21T05:00:46.897Z,23.38
2023-03-21T05:03:17.947Z,24.32
2023-03-21T05:05:48.020Z,24.20
2023-03-21T05:08:17.610Z,24.23
2023-03-21T05:10:47.088Z,25.88
2023-03-21T05:13:16.548Z,23.38
2023-03-21T05:15:45.922Z,26.23
2023-03-21T05:18:15.413Z,25.72
2023-03-21T05:20:50.518Z,23.73
2023-03-21T05:23:20.021Z,25.17
2023-03-21T05:25:50.154Z,23.65
2023-03-21T05:28:21.282Z,25.90
2023-03-21T05:30:50.756Z,25.43
2023-03-21T05:33:20.610Z,26.35
2023-03-21T05:35:51.933Z,25.57
2023-03-21T05:38:22.365Z,27.00
2023-03-21T05:40:55.160Z,24.87
2023-03-21T05:43:26.416Z,25.97
2023-03-21T05:45:56.467Z,28.42
2023-03-21T05:48:26.350Z,26.73
2023-03-21T05:50:57.612Z,26.80
2023-03-21T05:53:27.524Z,26.37
2023-03-21T05:55:56.907Z,25.40
2023-03-21T05:58:36.753Z,28.92
2023-03-21T06:01:07.061Z,27.25
2023-03-21T06:06:14.833Z,26.93
2023-03-21T06:08:48.815Z,29.30
2023-03-21T06:11:27.066Z,28.93
2023-03-21T06:14:01.236Z,28.50
2023-03-21T06:16:30.828Z,30.12
2023-03-21T06:19:00.202Z,28.93
2023-03-21T06:21:34.191Z,30.77
2023-03-21T06:24:03.653Z,30.10
2023-03-21T06:26:33.232Z,30.07
2023-03-21T06:29:03.697Z,29.37
2023-03-21T06:31:33.150Z,30.57
2023-03-21T06:34:03.899Z,31.05
2023-03-21T06:39:02.812Z,30.02
2023-03-21T06:41:32.393Z,32.03
2023-03-21T06:44:03.796Z,33.65
2023-03-21T06:46:34.916Z,32.10
2023-03-21T06:49:05.258Z,31.93
2023-03-21T06:51:35.576Z,32.03
2023-03-21T06:54:06.710Z,34.20
2023-03-21T06:56:43.951Z,35.33
2023-03-21T06:59:13.782Z,34.20
2023-03-21T07:01:45.065Z,38.48
2023-03-21T07:04:15.165Z,35.25
2023-03-21T07:06:44.644Z,36.55
2023-03-21T07:09:14.105Z,39.37
2023-03-21T07:11:44.118Z,40.50
2023-03-21T07:14:13.582Z,40.13
2023-03-21T07:16:42.999Z,41.05
2023-03-21T07:19:12.421Z,41.93
2023-03-21T07:21:41.863Z,41.53
2023-03-21T07:24:11.209Z,38.35
2023-03-21T07:26:41.029Z,41.85
2023-03-21T07:29:10.529Z,41.73
2023-03-21T07:31:40.415Z,40.73
2023-03-21T07:34:09.977Z,43.02
2023-03-21T07:36:39.486Z,40.90
2023-03-21T07:39:08.951Z,42.93
2023-03-21T07:41:38.319Z,40.48
2023-03-21T07:44:15.660Z,40.60
2023-03-21T07:46:45.261Z,40.30
2023-03-21T07:49:14.749Z,40.20
2023-03-21T07:51:44.273Z,43.73
2023-03-21T07:54:13.624Z,38.77
2023-03-21T07:56:42.996Z,39.75
2023-03-21T07:59:12.309Z,40.80
2023-03-21T08:01:41.757Z,43.00
2023-03-21T08:04:11.318Z,42.80
2023-03-21T08:06:41.421Z,40.73
2023-03-21T08:09:11.099Z,41.48
2023-03-21T08:11:41.311Z,40.12
2023-03-21T08:14:10.675Z,44.08
2023-03-21T08:16:40.147Z,41.93
2023-03-21T08:19:09.486Z,41.53
2023-03-21T08:21:39.401Z,39.58
2023-03-21T08:24:08.847Z,39.80
2023-03-21T08:26:38.361Z,39.77
2023-03-21T08:29:07.645Z,39.50
2023-03-21T08:31:37.166Z,36.98
2023-03-21T08:34:08.083Z,38.17
2023-03-21T08:36:38.494Z,37.08
2023-03-21T08:39:08.146Z,35.35
2023-03-21T08:41:56.843Z,37.75
2023-03-21T08:44:26.832Z,37.13
2023-03-21T08:46:56.187Z,36.55
2023-03-21T08:49:26.118Z,36.35
2023-03-21T08:51:57.460Z,34.95
2023-03-21T08:54:26.819Z,33.73
2023-03-21T08:56:56.613Z,32.48
2023-03-21T08:59:26.033Z,33.33
2023-03-21T09:01:55.705Z,34.00
2023-03-21T09:04:25.996Z,34.48
2023-03-21T09:06:56.221Z,33.18
2023-03-21T09:09:25.552Z,32.30
2023-03-21T09:11:54.950Z,31.30
2023-03-21T09:14:28.734Z,34.13
2023-03-21T09:16:56.019Z,30.70
2023-03-21T09:19:26.002Z,30.45
2023-03-21T09:21:55.686Z,31.57
2023-03-21T09:24:26.408Z,31.40
2023-03-21T09:26:55.952Z,31.62
2023-03-21T09:29:25.539Z,34.93
2023-03-21T09:31:55.120Z,34.30
2023-03-21T09:34:24.663Z,32.60
2023-03-21T09:36:55.633Z,32.83
2023-03-21T09:39:27.189Z,34.18
2023-03-21T09:42:13.193Z,33.60
2023-03-21T09:45:17.804Z,33.23
2023-03-21T09:47:51.455Z,32.45
2023-03-21T09:50:36.522Z,31.93
2023-03-21T09:53:21.059Z,33.18
2023-03-21T09:55:52.524Z,31.75
2023-03-21T09:58:37.273Z,30.05
2023-03-21T10:01:29.295Z,31.07
2023-03-21T10:04:04.669Z,29.27
2023-03-21T10:06:38.722Z,30.57
2023-03-21T10:09:18.832Z,28.38
2023-03-21T10:12:09.260Z,27.48
2023-03-21T10:17:28.227Z,27.27
2023-03-21T10:20:00.700Z,27.25
2023-03-21T10:22:30.459Z,26.33
2023-03-21T10:24:59.947Z,26.50
2023-03-21T10:27:29.586Z,28.23
2023-03-21T10:30:00.876Z,27.10
2023-03-21T10:32:30.318Z,25.15
2023-03-21T10:35:01.017Z,26.43
2023-03-21T10:37:30.532Z,25.52
2023-03-21T10:40:00.329Z,25.23
2023-03-21T10:42:36.372Z,25.25
2023-03-21T10:45:09.799Z,24.72
2023-03-21T10:47:39.543Z,24.23
2023-03-21T10:50:12.247Z,24.52
2023-03-21T10:52:47.709Z,23.57
2023-03-21T10:55:32.124Z,22.20
2023-03-21T10:58:10.889Z,23.00
2023-03-21T11:00:43.270Z,23.87
2023-03-21T11:03:24.624Z,22.67
2023-03-21T11:05:59.502Z,24.02
2023-03-21T11:08:29.119Z,24.43
2023-03-21T11:11:04.455Z,26.45
2023-03-21T11:13:39.555Z,25.62
2023-03-21T11:16:12.202Z,24.23
2023-03-21T11:18:44.365Z,26.82
2023-03-21T11:21:15.593Z,26.10
2023-03-21T11:23:52.117Z,24.95
2023-03-21T11:26:30.601Z,26.02
2023-03-21T11:29:00.741Z,27.50
2023-03-21T11:31:43.066Z,26.02
2023-03-21T11:34:15.571Z,25.35
2023-03-21T11:36:46.424Z,26.40
2023-03-21T11:39:30.739Z,26.62
2023-03-21T11:42:00.243Z,26.35
2023-03-21T11:44:32.751Z,26.43
2023-03-21T11:47:03.381Z,25.20
2023-03-21T11:49:32.954Z,26.85
2023-03-21T11:52:08.325Z,26.25
2023-03-21T11:55:03.326Z,25.50
2023-03-21T11:57:47.812Z,29.23
2023-03-21T12:00:24.045Z,28.30
2023-03-21T12:03:19.252Z,29.75
2023-03-21T12:05:57.281Z,31.23
2023-03-21T12:08:47.662Z,30.77
2023-03-21T12:14:11.330Z,29.48
2023-03-21T12:16:52.497Z,32.55
2023-03-21T12:19:30.745Z,31.90
2023-03-21T12:22:31.901Z,35.03
2023-03-21T12:25:16.458Z,33.28
2023-03-21T12:27:51.773Z,30.62
2023-03-21T12:30:47.164Z,31.82
2023-03-21T12:33:22.307Z,32.15
2023-03-21T12:36:11.401Z,31.80
2023-03-21T12:39:03.989Z,33.35
2023-03-21T12:41:39.632Z,30.85
2023-03-21T12:44:20.682Z,30.88
2023-03-21T12:47:17.308Z,29.92
2023-03-21T12:49:58.497Z,28.73
2023-03-21T12:52:36.636Z,31.07
2023-03-21T12:55:09.028Z,29.05
2023-03-21T12:57:57.117Z,30.57
2023-03-21T13:00:37.021Z,30.35
2023-03-21T13:03:25.091Z,30.72
2023-03-21T13:06:00.203Z,31.07
2023-03-21T13:08:44.499Z,31.57
2023-03-21T13:11:17.020Z,30.32
2023-03-21T13:14:04.256Z,31.93
2023-03-21T13:16:45.698Z,29.63
2023-03-21T13:19:36.116Z,30.17
2023-03-21T13:24:48.438Z,30.82
2023-03-21T13:27:24.637Z,31.05
2023-03-21T13:29:57.405Z,29.63
2023-03-21T13:32:32.774Z,30.50
2023-03-21T13:35:11.124Z,31.17
2023-03-21T13:37:43.612Z,31.77
2023-03-21T13:40:40.398Z,30.82
2023-03-21T13:43:47.915Z,31.62
2023-03-21T13:46:29.498Z,30.48
2023-03-21T13:49:04.918Z,28.77
2023-03-21T13:51:55.452Z,29.23
2023-03-21T13:54:30.496Z,27.02
2023-03-21T13:57:01.714Z,26.97
2023-03-21T13:59:40.174Z,28.40
2023-03-21T14:02:37.211Z,26.50
2023-03-21T14:05:09.711Z,26.15
2023-03-21T14:07:44.237Z,27.95
2023-03-21T14:10:37.509Z,27.40
2023-03-21T14:13:09.904Z,26.60
2023-03-21T14:15:53.103Z,26.52
2023-03-21T14:18:28.033Z,25.10
2023-03-21T14:20:58.100Z,25.00
2023-03-21T14:23:27.545Z,26.12
2023-03-21T14:25:57.622Z,25.80
2023-03-21T14:28:31.851Z,26.05
2023-03-21T14:31:02.963Z,22.82
2023-03-21T14:33:35.360Z,27.27
2023-03-21T14:36:08.757Z,25.12
2023-03-21T14:38:40.363Z,25.55
2023-03-21T14:41:27.790Z,25.17
2023-03-21T14:44:16.616Z,26.45
2023-03-21T14:46:46.174Z,26.27
2023-03-21T14:49:24.779Z,26.95
2023-03-21T14:51:59.833Z,26.23
2023-03-21T14:54:31.246Z,27.00
2023-03-21T14:57:06.071Z,27.90
2023-03-21T14:59:38.475Z,25.88
2023-03-21T15:02:19.886Z,27.30
2023-03-21T15:04:54.848Z,26.55
2023-03-21T15:07:36.366Z,26.55
2023-03-21T15:10:11.568Z,23.77
2023-03-21T15:12:44.009Z,25.95
2023-03-21T15:15:16.250Z,24.50
2023-03-21T15:17:45.956Z,27.22
2023-03-21T15:20:16.959Z,28.00
2023-03-21T15:22:55.680Z,23.38
2023-03-21T15:25:28.128Z,23.75
2023-03-21T15:27:57.644Z,25.10
2023-03-21T15:30:29.840Z,26.17
2023-03-21T15:33:01.720Z,23.22
2023-03-21T15:35:40.344Z,22.60
2023-03-21T15:38:12.985Z,23.47
2023-03-21T15:40:42.355Z,24.05
2023-03-21T15:43:17.797Z,23.18
2023-03-21T15:45:54.998Z,22.45
2023-03-21T15:48:29.791Z,24.30
2023-03-21T15:51:07.642Z,23.30
2023-03-21T15:53:38.698Z,24.25
2023-03-21T15:56:12.261Z,24.25
2023-03-21T15:58:44.839Z,23.92
2023-03-21T16:01:19.861Z,23.30
2023-03-21T16:04:01.089Z,22.87
2023-03-21T16:06:36.612Z,23.35
2023-03-21T16:09:09.305Z,22.37
2023-03-21T16:11:41.889Z,22.95
2023-03-21T16:14:11.455Z,23.30
2023-03-21T16:19:29.941Z,22.17
2023-03-21T16:24:27.892Z,22.27
2023-03-21T16:26:57.546Z,23.07
2023-03-21T16:29:27.124Z,23.70
2023-03-21T16:31:56.747Z,22.77
2023-03-21T16:34:27.097Z,24.47
2023-03-21T16:36:56.478Z,23.07
2023-03-21T16:39:27.579Z,23.15
2023-03-21T16:41:56.976Z,23.45
2023-03-21T16:44:26.337Z,22.62
2023-03-21T16:46:55.731Z,22.80
2023-03-21T16:49:27.806Z,22.73
2023-03-21T16:51:57.874Z,24.02
2023-03-21T16:54:27.405Z,24.20
2023-03-21T16:56:59.410Z,24.07
2023-03-21T16:59:28.724Z,25.23
2023-03-21T17:01:58.506Z,23.55
2023-03-21T17:04:27.902Z,23.77
2023-03-21T17:06:57.356Z,24.40
2023-03-21T17:09:27.213Z,22.48
2023-03-21T17:11:56.727Z,24.23
2023-03-21T17:14:26.118Z,24.20
2023-03-21T17:16:55.598Z,23.60
2023-03-21T17:19:26.256Z,23.43
2023-03-21T17:21:55.690Z,23.85
2023-03-21T17:24:26.169Z,22.20
2023-03-21T17:29:24.222Z,21.35
2023-03-21T17:31:53.613Z,21.73
2023-03-21T17:34:23.060Z,22.52
2023-03-21T17:36:52.568Z,23.83
2023-03-21T17:39:28.626Z,25.43
2023-03-21T17:41:58.118Z,22.98
2023-03-21T17:44:27.501Z,21.73
2023-03-21T17:46:56.909Z,21.45
2023-03-21T17:49:26.458Z,22.97
2023-03-21T17:51:55.768Z,22.53
2023-03-21T17:54:25.258Z,22.93
2023-03-21T17:56:56.415Z,22.63
2023-03-21T17:59:25.892Z,23.87
2023-03-21T18:01:55.413Z,22.20
2023-03-21T18:04:25.194Z,22.70
2023-03-21T18:06:56.261Z,24.40
2023-03-21T18:09:26.628Z,23.07
2023-03-21T18:11:56.401Z,20.70
2023-03-21T18:14:28.882Z,23.25
2023-03-21T18:16:57.310Z,22.25
2023-03-21T18:19:27.530Z,22.50
2023-03-21T18:21:57.580Z,22.98
2023-03-21T18:24:27.315Z,22.25
2023-03-21T18:26:57.550Z,21.65
2023-03-21T18:30:50.373Z,24.10
2023-03-21T18:32:06.875Z,22.25
2023-03-21T18:34:32.444Z,21.23
2023-03-21T18:37:04.045Z,24.30
2023-03-21T18:39:34.021Z,22.95
2023-03-21T18:42:04.498Z,23.55
2023-03-21T18:44:36.591Z,21.45
2023-03-21T18:47:07.233Z,22.45
2023-03-21T18:52:08.858Z,23.27
2023-03-21T18:54:38.885Z,21.73
2023-03-21T18:59:41.037Z,22.75
2023-03-21T19:02:12.612Z,22.58
2023-03-21T19:04:43.281Z,22.15
2023-03-21T19:07:12.765Z,19.67
2023-03-21T19:10:05.335Z,22.93
2023-03-21T19:12:14.395Z,20.62
2023-03-21T19:14:43.804Z,20.37
2023-03-21T19:18:15.374Z,20.85
2023-03-21T19:19:44.946Z,21.62
2023-03-21T19:22:14.368Z,21.60
2023-03-21T19:24:44.382Z,20.50
2023-03-21T19:27:14.612Z,21.75
2023-03-21T19:29:56.966Z,20.97
2023-03-21T19:32:15.540Z,20.15
2023-03-21T19:34:44.866Z,22.77
2023-03-21T19:37:14.232Z,22.35
2023-03-21T19:39:43.752Z,21.10
2023-03-21T19:42:17.157Z,21.20
2023-03-21T19:44:44.777Z,21.23
2023-03-21T19:47:14.157Z,19.45
2023-03-21T19:50:33.016Z,22.85
2023-03-21T19:52:15.243Z,22.17
2023-03-21T19:54:44.616Z,21.42
2023-03-21T19:57:15.368Z,20.60
2023-03-21T19:59:44.769Z,20.65
2023-03-21T20:02:34.368Z,19.92
2023-03-21T20:04:45.684Z,21.27
2023-03-21T20:07:15.129Z,20.77
2023-03-21T20:09:51.728Z,18.90
2023-03-21T20:12:16.151Z,21.05
2023-03-21T20:14:47.110Z,20.92
2023-03-21T20:17:16.736Z,21.42
2023-03-21T20:19:46.151Z,19.70
2023-03-21T20:22:24.505Z,20.23
2023-03-21T20:24:46.992Z,21.85
2023-03-21T20:27:18.243Z,20.83
2023-03-21T20:32:18.882Z,21.23
2023-03-21T20:34:48.786Z,18.48
2023-03-21T20:37:18.302Z,20.12
2023-03-21T20:39:48.156Z,19.90
2023-03-21T20:42:17.881Z,20.82
2023-03-21T20:45:02.660Z,21.55
2023-03-21T20:47:18.643Z,21.02
2023-03-21T20:49:49.411Z,19.73
2023-03-21T20:54:49.972Z,19.98
2023-03-21T20:57:20.310Z,19.90
2023-03-21T21:02:19.284Z,20.02
2023-03-21T21:05:21.566Z,19.97
2023-03-21T21:07:22.617Z,20.27
2023-03-21T21:09:51.950Z,20.10
2023-03-21T21:12:23.203Z,17.73
2023-03-21T21:14:52.542Z,18.27
2023-03-21T21:18:01.576Z,19.32
2023-03-21T21:19:55.747Z,19.48
2023-03-21T21:22:25.392Z,18.05
2023-03-21T21:24:54.875Z,18.27
2023-03-21T21:27:25.138Z,19.87
2023-03-21T21:29:54.435Z,19.70
2023-03-21T21:32:23.882Z,18.70
2023-03-21T21:34:53.225Z,18.57
2023-03-21T21:37:22.967Z,21.10
2023-03-21T21:39:52.945Z,19.98
2023-03-21T21:42:22.368Z,19.92
2023-03-21T21:44:51.688Z,21.43
2023-03-21T21:47:21.139Z,23.22
2023-03-21T21:49:50.619Z,21.30
2023-03-21T21:52:21.673Z,23.13
2023-03-21T21:54:51.047Z,22.70
2023-03-21T21:57:20.419Z,24.05
2023-03-21T21:59:54.134Z,22.32
2023-03-21T22:02:25.507Z,22.42
2023-03-21T22:04:58.004Z,24.23
2023-03-21T22:07:28.081Z,21.65
2023-03-21T22:09:57.581Z,22.60
2023-03-21T22:12:27.013Z,24.83
2023-03-21T22:14:56.395Z,23.67
2023-03-21T22:17:26.316Z,24.82
2023-03-21T22:20:05.078Z,25.20
2023-03-21T22:22:26.813Z,24.40
2023-03-21T22:24:56.214Z,25.50
2023-03-21T22:27:25.704Z,26.15
2023-03-21T22:29:55.883Z,27.50
2023-03-21T22:32:25.529Z,28.05
2023-03-21T22:34:56.290Z,29.60
2023-03-21T22:37:27.878Z,28.90
2023-03-21T22:39:57.236Z,28.52
2023-03-21T22:42:27.133Z,29.25
2023-03-21T22:44:56.534Z,30.10
2023-03-21T22:47:26.164Z,28.87
2023-03-21T22:49:56.297Z,29.45
2023-03-21T22:54:54.638Z,29.27
2023-03-21T22:57:24.113Z,31.35
2023-03-21T22:59:53.503Z,30.17
2023-03-21T23:02:22.948Z,31.27
2023-03-21T23:04:52.254Z,31.10
2023-03-21T23:07:21.746Z,31.45
2023-03-21T23:09:51.396Z,32.50
2023-03-21T23:12:20.822Z,34.13
2023-03-21T23:14:50.205Z,32.58
2023-03-21T23:17:19.569Z,31.57
2023-03-21T23:19:48.964Z,35.63
2023-03-21T23:22:18.433Z,33.13
2023-03-21T23:24:48.895Z,34.13
2023-03-21T23:27:18.360Z,34.15
2023-03-21T23:29:48.948Z,32.23
2023-03-21T23:32:18.342Z,33.15
2023-03-21T23:34:47.726Z,33.20
2023-03-21T23:37:17.095Z,34.50
2023-03-21T23:39:46.464Z,32.03
2023-03-21T23:42:15.931Z,31.35
2023-03-21T23:44:45.298Z,34.03
2023-03-21T23:47:15.995Z,33.65
2023-03-21T23:49:47.210Z,32.28
2023-03-21T23:52:16.731Z,35.63
2023-03-21T23:54:46.112Z,33.40
2023-03-21T23:57:17.111Z,33.85
2023-03-21T23:59:46.923Z,33.28
